createdAt,value
2022-12-11T00:00:15.608Z,34.88
2022-12-11T00:02:42.017Z,39.33
2022-12-11T00:05:09.008Z,35.53
2022-12-11T00:07:35.737Z,38.60
2022-12-11T00:10:02.121Z,36.20
2022-12-11T00:12:31.212Z,38.25
2022-12-11T00:14:57.732Z,35.85
2022-12-11T00:17:24.214Z,38.28
2022-12-11T00:19:50.545Z,38.70
2022-12-11T00:22:16.962Z,38.40
2022-12-11T00:24:43.337Z,38.63
2022-12-11T00:27:09.649Z,39.88
2022-12-11T00:29:36.060Z,37.80
2022-12-11T00:32:02.481Z,37.97
2022-12-11T00:34:30.169Z,40.55
2022-12-11T00:36:56.497Z,39.22
2022-12-11T00:39:22.879Z,39.97
2022-12-11T00:41:49.221Z,40.53
2022-12-11T00:44:15.560Z,36.80
2022-12-11T00:46:41.894Z,38.70
2022-12-11T00:49:08.212Z,36.13
2022-12-11T00:51:34.590Z,37.00
2022-12-11T00:54:00.974Z,36.78
2022-12-11T00:56:27.305Z,38.88
2022-12-11T00:58:53.753Z,38.60
2022-12-11T01:01:22.035Z,35.70
2022-12-11T01:03:48.982Z,36.33
2022-12-11T01:06:20.543Z,37.65
2022-12-11T01:08:47.442Z,38.63
2022-12-11T01:11:14.748Z,37.30
2022-12-11T01:13:41.862Z,38.50
2022-12-11T01:16:09.493Z,39.47
2022-12-11T01:18:36.070Z,39.40
2022-12-11T01:21:09.167Z,40.63
2022-12-11T01:23:35.681Z,41.42
2022-12-11T01:26:06.113Z,39.63
2022-12-11T01:28:32.470Z,43.22
2022-12-11T01:30:58.822Z,41.95
2022-12-11T01:33:25.189Z,43.80
2022-12-11T01:35:51.553Z,41.35
2022-12-11T01:38:17.937Z,43.75
2022-12-11T01:40:53.214Z,42.30
2022-12-11T01:43:19.601Z,44.40
2022-12-11T01:45:47.415Z,42.67
2022-12-11T01:48:22.184Z,45.78
2022-12-11T01:50:59.549Z,43.67
2022-12-11T01:53:31.245Z,43.60
2022-12-11T01:55:58.697Z,39.65
2022-12-11T01:58:27.238Z,42.63
2022-12-11T02:00:55.279Z,42.17
2022-12-11T02:03:21.909Z,42.47
2022-12-11T02:05:48.271Z,39.47
2022-12-11T02:08:15.228Z,42.67
2022-12-11T02:10:47.474Z,44.88
2022-12-11T02:13:18.360Z,43.75
2022-12-11T02:15:56.106Z,43.15
2022-12-11T02:18:25.244Z,40.50
2022-12-11T02:20:58.202Z,37.95
2022-12-11T02:23:35.481Z,39.67
2022-12-11T02:26:19.974Z,39.97
2022-12-11T02:28:54.119Z,39.33
2022-12-11T02:31:27.351Z,42.97
2022-12-11T02:34:15.645Z,40.15
2022-12-11T02:36:45.184Z,40.85
2022-12-11T02:39:13.254Z,42.45
2022-12-11T02:41:42.929Z,39.85
2022-12-11T02:44:10.434Z,41.97
2022-12-11T02:46:37.340Z,40.72
2022-12-11T02:49:05.700Z,39.75
2022-12-11T02:51:34.352Z,43.58
2022-12-11T02:54:00.845Z,38.45
2022-12-11T02:56:30.770Z,40.20
2022-12-11T02:59:01.801Z,38.10
2022-12-11T03:01:28.957Z,39.22
2022-12-11T03:03:56.149Z,38.92
2022-12-11T03:06:24.696Z,39.70
2022-12-11T03:08:51.912Z,40.00
2022-12-11T03:11:18.240Z,38.15
2022-12-11T03:13:44.752Z,39.85
2022-12-11T03:16:29.589Z,38.00
2022-12-11T03:19:14.599Z,38.72
2022-12-11T03:21:47.206Z,37.30
2022-12-11T03:24:33.809Z,37.00
2022-12-11T03:27:06.798Z,37.90
2022-12-11T03:29:37.678Z,36.50
2022-12-11T03:32:12.002Z,36.92
2022-12-11T03:34:43.320Z,37.35
2022-12-11T03:37:10.465Z,36.78
2022-12-11T03:39:38.667Z,37.78
2022-12-11T03:42:06.887Z,39.30
2022-12-11T03:44:34.500Z,34.40
2022-12-11T03:47:01.849Z,35.47
2022-12-11T03:49:31.726Z,34.58
2022-12-11T03:52:00.013Z,35.58
2022-12-11T03:54:27.200Z,34.90
2022-12-11T03:56:55.556Z,36.00
2022-12-11T03:59:21.960Z,35.25
2022-12-11T04:01:48.390Z,35.67
2022-12-11T04:04:15.097Z,33.65
2022-12-11T04:06:41.479Z,36.85
2022-12-11T04:09:07.818Z,35.17
2022-12-11T04:11:34.374Z,33.22
2022-12-11T04:14:27.208Z,35.83
2022-12-11T04:16:53.552Z,32.67
2022-12-11T04:19:38.912Z,34.90
2022-12-11T04:22:23.892Z,33.92
2022-12-11T04:24:50.690Z,34.42
2022-12-11T04:27:44.161Z,34.38
2022-12-11T04:30:13.049Z,33.72
2022-12-11T04:32:39.500Z,35.33
2022-12-11T04:35:07.061Z,34.28
2022-12-11T04:37:33.409Z,32.47
2022-12-11T04:39:59.766Z,32.42
2022-12-11T04:42:26.116Z,32.70
2022-12-11T04:44:52.398Z,32.25
2022-12-11T04:47:18.690Z,30.48
2022-12-11T04:49:45.042Z,29.65
2022-12-11T04:52:11.361Z,32.70
2022-12-11T04:54:37.729Z,33.83
2022-12-11T04:57:04.154Z,31.10
2022-12-11T04:59:31.799Z,31.27
2022-12-11T05:01:58.311Z,30.67
2022-12-11T05:04:24.705Z,31.48
2022-12-11T05:06:51.189Z,31.65
2022-12-11T05:09:17.843Z,30.60
2022-12-11T05:11:44.539Z,30.70
2022-12-11T05:14:10.909Z,30.58
2022-12-11T05:16:37.278Z,29.25
2022-12-11T05:19:03.618Z,28.70
2022-12-11T05:21:34.807Z,29.13
2022-12-11T05:24:01.558Z,29.50
2022-12-11T05:26:27.917Z,28.20
2022-12-11T05:28:55.000Z,28.77
2022-12-11T05:31:22.732Z,27.25
2022-12-11T05:33:50.208Z,26.90
2022-12-11T05:36:18.366Z,26.98
2022-12-11T05:38:45.261Z,28.40
2022-12-11T05:41:13.269Z,26.38
2022-12-11T05:43:39.626Z,27.00
2022-12-11T05:46:16.669Z,26.27
2022-12-11T05:48:43.828Z,27.02
2022-12-11T05:51:10.926Z,24.98
2022-12-11T05:53:38.018Z,27.58
2022-12-11T05:56:06.207Z,28.08
2022-12-11T05:58:32.832Z,26.20
2022-12-11T06:00:59.372Z,26.27
2022-12-11T06:03:25.694Z,26.50
2022-12-11T06:05:52.056Z,25.83
2022-12-11T06:08:18.428Z,26.20
2022-12-11T06:10:48.545Z,26.98
2022-12-11T06:13:14.998Z,24.60
2022-12-11T06:15:41.482Z,25.88
2022-12-11T06:18:08.188Z,26.23
2022-12-11T06:20:34.857Z,26.45
2022-12-11T06:23:01.777Z,25.50
2022-12-11T06:25:28.481Z,24.80
2022-12-11T06:27:54.996Z,25.50
2022-12-11T06:30:21.570Z,27.48
2022-12-11T06:32:48.019Z,27.02
2022-12-11T06:35:14.434Z,26.17
2022-12-11T06:37:40.806Z,26.80
2022-12-11T06:40:08.288Z,25.77
2022-12-11T06:42:35.191Z,27.48
2022-12-11T06:45:01.550Z,26.63
2022-12-11T06:47:28.512Z,26.13
2022-12-11T06:49:55.313Z,26.42
2022-12-11T06:52:22.437Z,26.58
2022-12-11T06:54:48.968Z,27.38
2022-12-11T06:57:15.607Z,26.58
2022-12-11T06:59:42.240Z,26.45
2022-12-11T07:02:12.377Z,25.48
2022-12-11T07:04:38.748Z,26.67
2022-12-11T07:07:05.078Z,26.35
2022-12-11T07:09:31.463Z,25.92
2022-12-11T07:11:58.129Z,26.20
2022-12-11T07:14:24.510Z,28.42
2022-12-11T07:16:51.163Z,28.90
2022-12-11T07:19:17.647Z,30.42
2022-12-11T07:21:44.022Z,28.50
2022-12-11T07:24:10.402Z,30.05
2022-12-11T07:26:36.824Z,31.45
2022-12-11T07:29:03.449Z,30.35
2022-12-11T07:31:30.280Z,30.00
2022-12-11T07:33:57.571Z,30.70
2022-12-11T07:36:24.470Z,30.92
2022-12-11T07:38:50.842Z,30.98
2022-12-11T07:41:17.669Z,31.25
2022-12-11T07:43:52.430Z,29.50
2022-12-11T07:46:20.800Z,31.58
2022-12-11T07:48:47.649Z,29.45
2022-12-11T07:51:18.574Z,29.27
2022-12-11T07:53:47.838Z,30.52
2022-12-11T07:56:15.522Z,28.77
2022-12-11T07:58:41.866Z,29.13
2022-12-11T08:01:36.389Z,29.15
2022-12-11T08:04:04.244Z,28.10
2022-12-11T08:06:31.573Z,30.52
2022-12-11T08:08:58.819Z,26.92
2022-12-11T08:11:25.702Z,30.30
2022-12-11T08:13:53.133Z,29.25
2022-12-11T08:16:19.754Z,30.27
2022-12-11T08:18:47.108Z,31.35
2022-12-11T08:21:20.730Z,28.77
2022-12-11T08:23:47.802Z,30.55
2022-12-11T08:26:18.738Z,29.88
2022-12-11T08:28:45.101Z,31.52
2022-12-11T08:31:13.350Z,30.73
2022-12-11T08:33:43.210Z,30.40
2022-12-11T08:36:11.582Z,29.95
2022-12-11T08:38:38.120Z,30.33
2022-12-11T08:41:10.153Z,32.90
2022-12-11T08:43:36.612Z,29.40
2022-12-11T08:46:03.181Z,28.35
2022-12-11T08:48:29.646Z,28.95
2022-12-11T08:50:59.021Z,27.00
2022-12-11T08:53:25.365Z,28.73
2022-12-11T08:55:51.748Z,30.17
2022-12-11T08:58:18.123Z,30.52
2022-12-11T09:00:44.494Z,26.48
2022-12-11T09:03:12.952Z,27.48
2022-12-11T09:05:40.176Z,27.25
2022-12-11T09:08:07.357Z,26.10
2022-12-11T09:10:33.778Z,27.45
2022-12-11T09:13:00.136Z,27.27
2022-12-11T09:15:26.433Z,28.15
2022-12-11T09:17:52.797Z,25.52
2022-12-11T09:20:19.198Z,25.90
2022-12-11T09:22:45.713Z,26.70
2022-12-11T09:25:12.219Z,25.27
2022-12-11T09:27:38.825Z,26.75
2022-12-11T09:30:05.587Z,25.45
2022-12-11T09:32:33.362Z,25.17
2022-12-11T09:34:59.843Z,25.73
2022-12-11T09:37:26.220Z,26.25
2022-12-11T09:39:52.548Z,25.17
2022-12-11T09:42:23.509Z,25.02
2022-12-11T09:44:51.746Z,26.40
2022-12-11T09:47:18.125Z,24.00
2022-12-11T09:49:45.116Z,25.33
2022-12-11T09:52:18.624Z,25.00
2022-12-11T09:54:50.198Z,25.83
2022-12-11T09:57:25.536Z,22.77
2022-12-11T09:59:51.896Z,25.65
2022-12-11T10:02:36.957Z,24.63
2022-12-11T10:05:21.129Z,26.17
2022-12-11T10:07:47.552Z,25.20
2022-12-11T10:10:24.888Z,26.25
2022-12-11T10:13:09.843Z,24.33
2022-12-11T10:15:45.491Z,24.77
2022-12-11T10:18:19.802Z,27.10
2022-12-11T10:20:47.279Z,25.42
2022-12-11T10:23:18.819Z,25.35
2022-12-11T10:25:51.286Z,23.23
2022-12-11T10:28:19.090Z,24.60
2022-12-11T10:31:04.115Z,25.42
2022-12-11T10:33:37.659Z,24.10
2022-12-11T10:36:05.243Z,25.73
2022-12-11T10:38:33.209Z,24.23
2022-12-11T10:41:04.309Z,25.48
2022-12-11T10:43:42.152Z,25.48
2022-12-11T10:46:18.945Z,24.30
2022-12-11T10:48:55.747Z,23.80
2022-12-11T10:51:24.268Z,23.98
2022-12-11T10:53:55.195Z,23.52
2022-12-11T10:56:25.820Z,23.15
2022-12-11T10:58:52.390Z,23.13
2022-12-11T11:01:21.388Z,24.95
2022-12-11T11:03:53.645Z,24.10
2022-12-11T11:06:21.141Z,22.23
2022-12-11T11:08:48.793Z,22.88
2022-12-11T11:11:21.282Z,22.98
2022-12-11T11:13:47.731Z,23.48
2022-12-11T11:16:16.540Z,22.13
2022-12-11T11:18:49.056Z,20.27
2022-12-11T11:21:18.998Z,22.60
2022-12-11T11:23:49.399Z,21.33
2022-12-11T11:26:20.567Z,21.33
2022-12-11T11:28:48.249Z,20.98
2022-12-11T11:31:15.966Z,21.95
2022-12-11T11:34:05.357Z,21.25
2022-12-11T11:36:33.969Z,19.90
2022-12-11T11:39:03.059Z,20.42
2022-12-11T11:41:33.920Z,19.85
2022-12-11T11:44:10.061Z,20.65
2022-12-11T11:46:38.516Z,19.63
2022-12-11T11:49:07.681Z,21.70
2022-12-11T11:51:36.029Z,21.10
2022-12-11T11:54:07.794Z,20.13
2022-12-11T11:56:36.173Z,19.58
2022-12-11T11:59:23.486Z,20.73
2022-12-11T12:01:50.509Z,19.60
2022-12-11T12:04:17.012Z,19.45
2022-12-11T12:06:58.636Z,20.42
2022-12-11T12:09:40.999Z,19.05
2022-12-11T12:12:07.381Z,19.05
2022-12-11T12:14:54.761Z,20.23
2022-12-11T12:17:31.447Z,19.73
2022-12-11T12:20:04.450Z,19.45
2022-12-11T12:22:30.790Z,19.17
2022-12-11T12:25:23.532Z,18.48
2022-12-11T12:27:53.946Z,18.17
2022-12-11T12:30:23.359Z,19.00
2022-12-11T12:33:05.180Z,19.13
2022-12-11T12:35:35.288Z,18.25
2022-12-11T12:38:14.412Z,17.55
2022-12-11T12:40:43.536Z,17.92
2022-12-11T12:43:13.069Z,18.35
2022-12-11T12:45:42.208Z,18.73
2022-12-11T12:48:09.599Z,19.70
2022-12-11T12:50:42.131Z,18.90
2022-12-11T12:53:10.870Z,18.23
2022-12-11T12:55:39.463Z,18.52
2022-12-11T12:58:06.544Z,18.77
2022-12-11T13:00:35.280Z,18.80
2022-12-11T13:03:04.180Z,18.55
2022-12-11T13:05:32.773Z,18.48
2022-12-11T13:08:01.265Z,18.55
2022-12-11T13:10:35.039Z,19.98
2022-12-11T13:13:02.168Z,20.08
2022-12-11T13:15:28.551Z,18.58
2022-12-11T13:17:55.479Z,20.23
2022-12-11T13:20:23.009Z,19.27
2022-12-11T13:22:51.433Z,20.05
2022-12-11T13:25:22.624Z,18.65
2022-12-11T13:27:49.763Z,19.88
2022-12-11T13:30:16.139Z,19.38
2022-12-11T13:32:43.168Z,19.48
2022-12-11T13:35:15.407Z,20.42
2022-12-11T13:37:47.270Z,21.50
2022-12-11T13:40:17.322Z,20.15
2022-12-11T13:42:57.381Z,20.45
2022-12-11T13:45:23.746Z,21.00
2022-12-11T13:47:50.226Z,22.00
2022-12-11T13:50:21.923Z,21.48
2022-12-11T13:52:55.010Z,21.25
2022-12-11T13:55:27.300Z,21.50
2022-12-11T13:57:53.936Z,22.50
2022-12-11T14:00:22.661Z,21.30
2022-12-11T14:02:50.397Z,22.77
2022-12-11T14:05:16.985Z,24.92
2022-12-11T14:07:46.575Z,22.83
2022-12-11T14:10:24.989Z,29.35
2022-12-11T14:13:07.933Z,24.70
2022-12-11T14:15:35.688Z,21.83
2022-12-11T14:18:03.311Z,24.02
2022-12-11T14:20:31.041Z,22.10
2022-12-11T14:23:16.036Z,23.10
2022-12-11T14:25:42.409Z,22.08
2022-12-11T14:28:27.868Z,24.00
2022-12-11T14:30:59.036Z,25.48
2022-12-11T14:33:31.904Z,25.23
2022-12-11T14:38:33.889Z,23.05
2022-12-11T14:41:03.401Z,23.85
2022-12-11T14:43:36.220Z,22.55
2022-12-11T14:48:32.648Z,21.52
2022-12-11T14:51:01.017Z,26.00
2022-12-11T14:53:35.572Z,25.15
2022-12-11T14:56:05.083Z,24.35
2022-12-11T14:58:33.789Z,26.00
2022-12-11T15:01:01.754Z,24.88
2022-12-11T15:03:35.135Z,26.40
2022-12-11T15:06:01.925Z,24.60
2022-12-11T15:08:30.169Z,25.23
2022-12-11T15:11:08.925Z,24.42
2022-12-11T15:13:36.237Z,30.25
2022-12-11T15:16:03.342Z,24.85
2022-12-11T15:18:31.144Z,24.27
2022-12-11T15:20:59.547Z,25.23
2022-12-11T15:23:26.441Z,24.33
2022-12-11T15:25:54.889Z,25.55
2022-12-11T15:28:34.956Z,27.27
2022-12-11T15:31:27.398Z,26.58
2022-12-11T15:33:53.784Z,26.73
2022-12-11T15:36:24.595Z,24.65
2022-12-11T15:38:51.009Z,25.05
2022-12-11T15:41:20.923Z,26.10
2022-12-11T15:43:47.500Z,27.80
2022-12-11T15:46:13.859Z,25.73
2022-12-11T15:48:40.280Z,26.42
2022-12-11T15:51:06.739Z,26.75
2022-12-11T15:53:33.138Z,26.27
2022-12-11T15:56:00.132Z,24.63
2022-12-11T15:58:27.373Z,24.60
2022-12-11T16:00:53.819Z,24.60
2022-12-11T16:03:23.447Z,25.45
2022-12-11T16:05:50.608Z,26.00
2022-12-11T16:08:18.720Z,25.25
2022-12-11T16:10:46.089Z,24.88
2022-12-11T16:13:13.017Z,23.30
2022-12-11T16:15:40.459Z,24.90
2022-12-11T16:18:11.362Z,23.73
2022-12-11T16:20:38.932Z,24.50
2022-12-11T16:23:05.486Z,25.70
2022-12-11T16:25:32.786Z,24.08
2022-12-11T16:28:00.297Z,23.77
2022-12-11T16:30:27.420Z,24.10
2022-12-11T16:32:53.979Z,23.35
2022-12-11T16:35:20.881Z,23.35
2022-12-11T16:37:51.377Z,24.50
2022-12-11T16:40:17.972Z,26.00
2022-12-11T16:42:44.491Z,30.25
2022-12-11T16:45:12.977Z,29.27
2022-12-11T16:47:39.468Z,25.65
2022-12-11T16:50:06.134Z,26.73
2022-12-11T16:52:33.452Z,27.75
2022-12-11T16:54:59.809Z,24.48
2022-12-11T16:57:26.194Z,25.92
2022-12-11T16:59:52.542Z,26.85
2022-12-11T17:02:20.456Z,25.98
2022-12-11T17:04:52.152Z,25.35
2022-12-11T17:07:20.269Z,23.98
2022-12-11T17:09:46.668Z,24.30
2022-12-11T17:12:13.021Z,24.38
2022-12-11T17:14:39.363Z,24.33
2022-12-11T17:17:05.810Z,24.02
2022-12-11T17:19:32.216Z,25.00
2022-12-11T17:21:58.924Z,24.80
2022-12-11T17:24:25.345Z,26.75
2022-12-11T17:26:51.714Z,28.73
2022-12-11T17:29:18.106Z,21.75
2022-12-11T17:31:44.578Z,22.00
2022-12-11T17:34:10.989Z,20.75
2022-12-11T17:36:37.605Z,21.70
2022-12-11T17:39:04.064Z,22.60
2022-12-11T17:41:30.424Z,21.75
2022-12-11T17:43:56.736Z,23.23
2022-12-11T17:46:23.263Z,23.25
2022-12-11T17:48:49.897Z,22.67
2022-12-11T17:51:21.024Z,22.25
2022-12-11T17:53:47.500Z,20.88
2022-12-11T17:56:13.821Z,22.88
2022-12-11T17:58:40.290Z,22.95
2022-12-11T18:01:08.021Z,22.85
2022-12-11T18:03:35.050Z,22.55
2022-12-11T18:06:03.990Z,21.38
2022-12-11T18:08:30.345Z,21.05
2022-12-11T18:10:57.552Z,27.95
2022-12-11T18:13:24.365Z,23.15
2022-12-11T18:16:03.953Z,27.15
2022-12-11T18:18:30.355Z,26.40
2022-12-11T18:20:56.856Z,24.63
2022-12-11T18:23:23.548Z,22.90
2022-12-11T18:25:49.911Z,24.55
2022-12-11T18:28:16.276Z,24.20
2022-12-11T18:30:42.602Z,23.88
2022-12-11T18:33:09.043Z,22.10
2022-12-11T18:35:35.361Z,21.55
2022-12-11T18:38:03.498Z,20.75
2022-12-11T18:40:29.849Z,21.55
2022-12-11T18:42:56.229Z,22.15
2022-12-11T18:45:22.645Z,22.48
2022-12-11T18:47:50.620Z,23.67
2022-12-11T18:50:17.164Z,25.60
2022-12-11T18:52:43.858Z,21.33
2022-12-11T18:55:10.650Z,19.40
2022-12-11T18:57:39.329Z,18.98
2022-12-11T19:00:07.171Z,19.52
2022-12-11T19:02:34.313Z,20.55
2022-12-11T19:05:01.025Z,20.25
2022-12-11T19:07:28.366Z,18.90
2022-12-11T19:09:54.829Z,20.58
2022-12-11T19:12:21.541Z,20.30
2022-12-11T19:14:47.876Z,18.92
2022-12-11T19:17:14.194Z,18.88
2022-12-11T19:19:40.677Z,19.60
2022-12-11T19:22:07.412Z,18.25
2022-12-11T19:24:33.941Z,18.67
2022-12-11T19:27:00.383Z,17.23
2022-12-11T19:29:28.007Z,17.48
2022-12-11T19:31:55.581Z,17.75
2022-12-11T19:34:23.183Z,18.85
2022-12-11T19:36:49.755Z,19.08
2022-12-11T19:39:16.086Z,17.38
2022-12-11T19:41:42.612Z,18.65
2022-12-11T19:44:09.401Z,22.48
2022-12-11T19:46:35.996Z,17.55
2022-12-11T19:49:02.470Z,18.77
2022-12-11T19:51:30.168Z,17.38
2022-12-11T19:53:57.347Z,18.13
2022-12-11T19:56:23.680Z,17.58
2022-12-11T19:58:50.096Z,28.23
2022-12-11T20:01:24.643Z,18.50
2022-12-11T20:03:51.696Z,21.92
2022-12-11T20:06:18.127Z,19.92
2022-12-11T20:08:45.913Z,17.77
2022-12-11T20:11:17.821Z,18.73
2022-12-11T20:13:45.910Z,20.27
2022-12-11T20:16:13.105Z,21.92
2022-12-11T20:18:39.622Z,19.23
2022-12-11T20:21:07.815Z,18.25
2022-12-11T20:23:35.024Z,18.92
2022-12-11T20:26:08.417Z,20.02
2022-12-11T20:28:34.866Z,19.67
2022-12-11T20:31:18.068Z,17.67
2022-12-11T20:33:45.956Z,29.55
2022-12-11T20:36:13.404Z,17.80
2022-12-11T20:38:41.040Z,17.23
2022-12-11T20:41:11.909Z,18.35
2022-12-11T20:43:39.081Z,20.58
2022-12-11T20:46:06.422Z,29.17
2022-12-11T20:48:33.247Z,22.73
2022-12-11T20:51:00.963Z,22.35
2022-12-11T20:53:28.526Z,21.05
2022-12-11T20:55:55.014Z,21.00
2022-12-11T20:58:21.472Z,21.40
2022-12-11T21:00:47.952Z,22.88
2022-12-11T21:03:14.416Z,20.67
2022-12-11T21:05:42.065Z,19.75
2022-12-11T21:08:08.788Z,21.85
2022-12-11T21:10:35.204Z,21.77
2022-12-11T21:13:04.946Z,20.10
2022-12-11T21:15:32.314Z,21.92
2022-12-11T21:17:58.626Z,20.70
2022-12-11T21:20:25.504Z,19.25
2022-12-11T21:22:51.928Z,19.70
2022-12-11T21:25:18.310Z,18.88
2022-12-11T21:27:44.625Z,19.98
2022-12-11T21:30:11.313Z,19.63
2022-12-11T21:32:37.763Z,24.30
2022-12-11T21:35:04.790Z,21.98
2022-12-11T21:37:31.152Z,19.08
2022-12-11T21:39:58.016Z,20.75
2022-12-11T21:42:24.614Z,19.65
2022-12-11T21:47:37.500Z,18.58
2022-12-11T21:50:04.478Z,19.77
2022-12-11T21:52:30.941Z,19.38
2022-12-11T21:54:57.275Z,20.48
2022-12-11T21:57:26.589Z,21.35
2022-12-11T21:59:53.365Z,21.33
2022-12-11T22:02:19.909Z,20.58
2022-12-11T22:04:47.400Z,19.52
2022-12-11T22:07:15.273Z,18.83
2022-12-11T22:09:42.385Z,18.55
2022-12-11T22:12:10.252Z,19.15
2022-12-11T22:14:36.736Z,19.50
2022-12-11T22:17:03.128Z,18.52
2022-12-11T22:19:32.734Z,18.00
2022-12-11T22:21:59.380Z,19.70
2022-12-11T22:24:25.702Z,19.15
2022-12-11T22:26:53.353Z,19.27
2022-12-11T22:29:19.702Z,19.45
2022-12-11T22:31:46.081Z,20.00
2022-12-11T22:34:12.436Z,19.17
2022-12-11T22:36:38.814Z,20.00
2022-12-11T22:39:05.153Z,19.88
2022-12-11T22:41:32.300Z,20.02
2022-12-11T22:43:58.929Z,20.63
2022-12-11T22:46:27.305Z,19.30
2022-12-11T22:48:54.108Z,19.50
2022-12-11T22:51:20.486Z,20.05
2022-12-11T22:53:46.980Z,18.63
2022-12-11T22:56:13.359Z,19.85
2022-12-11T22:58:39.725Z,20.25
2022-12-11T23:01:11.085Z,19.75
2022-12-11T23:03:37.563Z,19.15
2022-12-11T23:06:08.412Z,19.65
2022-12-11T23:08:35.386Z,20.30
2022-12-11T23:11:01.926Z,19.30
2022-12-11T23:13:28.351Z,19.35
2022-12-11T23:15:54.734Z,19.05
2022-12-11T23:18:21.162Z,19.73
2022-12-11T23:20:48.626Z,19.40
2022-12-11T23:23:15.040Z,20.27
2022-12-11T23:25:41.351Z,18.25
2022-12-11T23:28:07.777Z,20.58
2022-12-11T23:30:34.253Z,19.08
2022-12-11T23:33:00.657Z,19.70
2022-12-11T23:35:27.041Z,18.75
2022-12-11T23:37:53.465Z,18.58
2022-12-11T23:40:19.780Z,21.00
2022-12-11T23:42:46.091Z,19.15
2022-12-11T23:45:12.680Z,19.00
2022-12-11T23:47:39.188Z,20.13
2022-12-11T23:50:05.760Z,19.42
2022-12-11T23:52:32.131Z,20.10
2022-12-11T23:54:58.431Z,20.13
2022-12-11T23:57:24.810Z,20.45
2022-12-11T23:59:51.250Z,21.13
